createdAt,value
2018-04-04T00:00:44.473Z,9.4
2018-04-04T00:04:44.787Z,9.3
2018-04-04T00:07:44.862Z,9.1
2018-04-04T00:10:45.221Z,9
2018-04-04T00:13:45.360Z,8.9
2018-04-04T00:19:45.714Z,8.8
2018-04-04T00:30:46.451Z,8.9
2018-04-04T00:32:46.565Z,9
2018-04-04T00:33:46.628Z,9.1
2018-04-04T00:35:46.743Z,9.3
2018-04-04T00:39:46.990Z,9.4
2018-04-04T00:44:47.297Z,9.5
2018-04-04T01:07:48.667Z,9.6
2018-04-04T01:09:48.802Z,9.8
2018-04-04T01:11:48.918Z,9.9
2018-04-04T01:13:49.083Z,10
2018-04-04T01:14:49.114Z,10.1
2018-04-04T01:16:49.246Z,10.3
2018-04-04T01:17:49.391Z,10.5
2018-04-04T01:19:49.454Z,10.8
2018-04-04T01:21:49.610Z,10.9
2018-04-04T01:22:49.658Z,11
2018-04-04T01:23:49.692Z,11.1
2018-04-04T01:24:49.762Z,11.3
2018-04-04T01:27:49.943Z,11.4
2018-04-04T01:39:50.652Z,11.5
2018-04-04T01:44:50.945Z,11.6
2018-04-04T01:47:51.178Z,11.8
2018-04-04T01:49:51.306Z,11.9
2018-04-04T01:52:51.472Z,12
2018-04-04T01:56:51.717Z,12.1
2018-04-04T02:01:51.996Z,12.2
2018-04-04T02:08:52.493Z,12.4
2018-04-04T02:21:53.444Z,12.2
2018-04-04T02:22:53.512Z,12.4
2018-04-04T02:23:53.563Z,12.2
2018-04-04T02:27:53.764Z,12.1
2018-04-04T02:31:54.502Z,12
2018-04-04T02:36:54.799Z,11.9
2018-04-04T02:44:55.327Z,12
2018-04-04T02:46:55.446Z,12.1
2018-04-04T02:49:55.636Z,12.2
2018-04-04T02:51:55.747Z,12.4
2018-04-04T02:55:56.062Z,12.5
2018-04-04T03:08:56.793Z,12.6
2018-04-04T03:09:56.825Z,12.5
2018-04-04T03:10:56.915Z,12.6
2018-04-04T03:14:57.184Z,12.5
2018-04-04T03:29:58.052Z,12.4
2018-04-04T03:30:58.161Z,12.5
2018-04-04T03:37:58.607Z,12.6
2018-04-04T03:53:59.620Z,12.5
2018-04-04T03:58:59.914Z,12.4
2018-04-04T04:04:00.211Z,12.2
2018-04-04T04:12:00.795Z,12.1
2018-04-04T04:16:00.880Z,12
2018-04-04T04:19:01.268Z,11.9
2018-04-04T04:31:01.874Z,11.8
2018-04-04T04:38:02.236Z,11.6
2018-04-04T04:51:03.037Z,11.5
2018-04-04T04:52:03.124Z,11.6
2018-04-04T04:53:03.222Z,11.5
2018-04-04T04:58:03.514Z,11.4
2018-04-04T05:01:03.654Z,11.3
2018-04-04T05:05:03.896Z,11.1
2018-04-04T05:07:04.652Z,11
2018-04-04T05:11:04.291Z,10.9
2018-04-04T05:15:04.632Z,10.8
2018-04-04T05:22:04.945Z,10.6
2018-04-04T05:23:05.050Z,10.8
2018-04-04T05:24:05.066Z,10.6
2018-04-04T05:26:05.236Z,10.8
2018-04-04T05:37:05.870Z,10.9
2018-04-04T05:41:06.128Z,11
2018-04-04T05:42:06.179Z,10.9
2018-04-04T05:43:06.387Z,11
2018-04-04T05:51:06.797Z,11.1
2018-04-04T05:58:07.163Z,11.3
2018-04-04T06:02:07.489Z,11.4
2018-04-04T06:05:07.620Z,11.5
2018-04-04T06:08:07.824Z,11.6
2018-04-04T06:10:07.955Z,11.8
2018-04-04T06:13:08.144Z,11.9
2018-04-04T06:14:08.152Z,12
2018-04-04T06:16:08.311Z,12.1
2018-04-04T06:18:08.440Z,12.2
2018-04-04T06:20:08.533Z,12.4
2018-04-04T06:21:08.598Z,12.5
2018-04-04T06:23:08.700Z,12.6
2018-04-04T06:25:08.878Z,12.8
2018-04-04T06:27:08.953Z,12.9
2018-04-04T06:29:09.090Z,13
2018-04-04T06:30:09.206Z,13.1
2018-04-04T06:31:09.196Z,13.4
2018-04-04T06:32:09.302Z,13.9
2018-04-04T06:33:09.493Z,14.5
2018-04-04T06:34:09.470Z,15.1
2018-04-04T06:35:09.739Z,15.9
2018-04-04T06:36:09.585Z,16.5
2018-04-04T06:37:09.619Z,17
2018-04-04T06:38:09.660Z,17.8
2018-04-04T06:39:09.732Z,18.5
2018-04-04T06:40:09.815Z,19.5
2018-04-04T06:41:09.845Z,20.1
2018-04-04T06:42:09.915Z,20.5
2018-04-04T06:43:10.040Z,21
2018-04-04T06:45:10.145Z,20.8
2018-04-04T06:46:10.157Z,20.6
2018-04-04T06:47:10.261Z,20.5
2018-04-04T06:48:10.292Z,20.6
2018-04-04T06:49:10.355Z,20.8
2018-04-04T06:50:10.449Z,20.5
2018-04-04T06:53:10.658Z,20.9
2018-04-04T06:54:10.688Z,21.4
2018-04-04T06:55:10.809Z,21.9
2018-04-04T06:56:10.844Z,22.2
2018-04-04T06:57:10.878Z,22.4
2018-04-04T06:58:10.934Z,22.9
2018-04-04T06:59:11.005Z,23
2018-04-04T07:01:11.121Z,22.8
2018-04-04T07:02:11.172Z,22.6
2018-04-04T07:03:11.238Z,23
2018-04-04T07:04:11.308Z,23.5
2018-04-04T07:05:11.432Z,23.7
2018-04-04T07:06:11.402Z,24
2018-04-04T07:07:11.462Z,24.3
2018-04-04T07:08:11.566Z,24.9
2018-04-04T07:09:11.654Z,25.3
2018-04-04T07:10:11.688Z,25.5
2018-04-04T07:11:11.689Z,25.9
2018-04-04T07:12:11.794Z,26.1
2018-04-04T07:13:11.816Z,26.5
2018-04-04T07:14:11.880Z,26.9
2018-04-04T07:15:11.995Z,27.5
2018-04-04T07:16:12.002Z,27.6
2018-04-04T07:17:12.065Z,27.5
2018-04-04T07:18:12.143Z,27.4
2018-04-04T07:19:12.191Z,26.9
2018-04-04T07:20:12.323Z,26.5
2018-04-04T07:21:12.336Z,26.2
2018-04-04T07:22:12.397Z,25.9
2018-04-04T07:23:12.456Z,25.6
2018-04-04T07:24:12.538Z,25.4
2018-04-04T07:28:12.753Z,25.5
2018-04-04T07:30:12.873Z,25.4
2018-04-04T07:31:12.927Z,25.3
2018-04-04T07:32:12.992Z,25.1
2018-04-04T07:33:13.047Z,25.4
2018-04-04T07:34:13.123Z,25.5
2018-04-04T07:35:13.200Z,25.8
2018-04-04T07:38:13.432Z,25.6
2018-04-04T07:40:13.543Z,25.5
2018-04-04T07:42:13.668Z,25.4
2018-04-04T07:43:13.722Z,25.6
2018-04-04T07:44:13.788Z,25.8
2018-04-04T07:45:13.864Z,25.9
2018-04-04T07:46:13.909Z,26
2018-04-04T07:47:13.975Z,26.1
2018-04-04T07:48:14.036Z,26.4
2018-04-04T07:50:14.191Z,26.2
2018-04-04T07:51:14.197Z,26.4
2018-04-04T07:52:14.262Z,26.6
2018-04-04T07:53:14.351Z,26.9
2018-04-04T07:54:14.341Z,27.1
2018-04-04T07:55:14.443Z,27.5
2018-04-04T07:56:14.509Z,27.9
2018-04-04T07:57:14.571Z,28.3
2018-04-04T07:58:14.653Z,29
2018-04-04T07:59:14.652Z,29.8
2018-04-04T08:00:14.760Z,30.4
2018-04-04T08:01:14.841Z,30.9
2018-04-04T08:02:14.844Z,31.1
2018-04-04T08:03:14.902Z,31.6
2018-04-04T08:04:14.958Z,32.5
2018-04-04T08:05:15.128Z,33.5
2018-04-04T08:06:15.138Z,34.4
2018-04-04T08:07:15.160Z,35
2018-04-04T08:08:15.264Z,35.5
2018-04-04T08:09:15.326Z,36
2018-04-04T08:10:15.385Z,36.6
2018-04-04T08:11:15.460Z,37
2018-04-04T08:12:15.478Z,37.5
2018-04-04T08:13:15.529Z,38.1
2018-04-04T08:14:15.592Z,38.4
2018-04-04T08:15:15.633Z,38.9
2018-04-04T08:16:15.720Z,39.1
2018-04-04T08:17:15.772Z,39.6
2018-04-04T08:18:15.834Z,40
2018-04-04T08:19:15.886Z,40.2
2018-04-04T08:21:16.010Z,40.1
2018-04-04T08:24:16.188Z,40.2
2018-04-04T08:25:16.275Z,40.4
2018-04-04T08:26:16.373Z,40.5
2018-04-04T08:27:16.380Z,40.8
2018-04-04T08:28:16.467Z,40.6
2018-04-04T08:29:16.528Z,40.8
2018-04-04T08:30:16.675Z,41.2
2018-04-04T08:31:16.693Z,41.6
2018-04-04T08:32:16.750Z,41.7
2018-04-04T08:34:16.871Z,41.9
2018-04-04T08:35:17.031Z,41.7
2018-04-04T08:36:16.935Z,41.6
2018-04-04T08:37:17.062Z,41.2
2018-04-04T08:38:17.110Z,41.4
2018-04-04T08:40:17.235Z,41.6
2018-04-04T08:41:17.293Z,41.7
2018-04-04T08:42:17.334Z,41.9
2018-04-04T08:43:17.413Z,42.1
2018-04-04T08:44:17.507Z,42.2
2018-04-04T08:45:17.519Z,42.5
2018-04-04T08:46:17.643Z,42.7
2018-04-04T08:47:17.616Z,43
2018-04-04T08:48:17.670Z,43.3
2018-04-04T08:49:17.736Z,43.6
2018-04-04T08:50:18.067Z,43.7
2018-04-04T08:51:17.871Z,43.9
2018-04-04T08:52:17.914Z,44.1
2018-04-04T08:53:17.981Z,44.2
2018-04-04T08:54:18.088Z,44.4
2018-04-04T08:55:18.195Z,44.5
2018-04-04T08:58:18.323Z,44.6
2018-04-04T08:59:18.397Z,44.7
2018-04-04T09:00:18.488Z,44.9
2018-04-04T09:01:18.550Z,45
2018-04-04T09:02:18.565Z,45.1
2018-04-04T09:04:18.660Z,45.2
2018-04-04T09:05:18.794Z,45.4
2018-04-04T09:06:18.832Z,45.2
2018-04-04T09:07:18.908Z,45.1
2018-04-04T09:08:18.907Z,45.2
2018-04-04T09:09:18.971Z,45.4
2018-04-04T09:10:19.100Z,45.5
2018-04-04T09:12:19.203Z,45.6
2018-04-04T09:14:19.303Z,45.8
2018-04-04T09:15:19.429Z,45.9
2018-04-04T09:16:19.559Z,46
2018-04-04T09:17:19.489Z,46.2
2018-04-04T09:18:19.567Z,46.4
2018-04-04T09:19:19.618Z,46.5
2018-04-04T09:20:19.695Z,46.6
2018-04-04T09:22:19.773Z,46.4
2018-04-04T09:29:20.272Z,46.5
2018-04-04T09:31:20.340Z,46.6
2018-04-04T09:32:20.438Z,46.7
2018-04-04T09:33:20.458Z,46.9
2018-04-04T09:34:20.513Z,47
2018-04-04T09:35:21.225Z,47.1
2018-04-04T09:36:20.651Z,47.2
2018-04-04T09:38:20.796Z,47.4
2018-04-04T09:42:21.089Z,47.5
2018-04-04T09:43:21.131Z,47.7
2018-04-04T09:44:21.188Z,48
2018-04-04T09:45:21.279Z,48.4
2018-04-04T09:46:21.265Z,47.9
2018-04-04T09:47:21.352Z,47.7
2018-04-04T09:48:21.440Z,47.2
2018-04-04T09:49:21.507Z,47.6
2018-04-04T09:50:21.514Z,47
2018-04-04T09:51:21.592Z,45.8
2018-04-04T09:52:21.713Z,43.9
2018-04-04T09:53:21.697Z,41.9
2018-04-04T09:54:21.763Z,40.4
2018-04-04T09:55:22.069Z,39.7
2018-04-04T09:56:21.877Z,39.5
2018-04-04T09:57:21.956Z,40.2
2018-04-04T09:59:22.073Z,40.5
2018-04-04T10:00:22.132Z,40.2
2018-04-04T10:01:22.271Z,41.5
2018-04-04T10:02:22.255Z,42.9
2018-04-04T10:03:22.342Z,42.6
2018-04-04T10:04:22.420Z,41.7
2018-04-04T10:05:22.511Z,42.7
2018-04-04T10:06:22.538Z,43.5
2018-04-04T10:07:22.599Z,44.5
2018-04-04T10:08:22.631Z,44.1
2018-04-04T10:09:22.720Z,42.2
2018-04-04T10:10:22.861Z,41
2018-04-04T10:11:22.873Z,40.4
2018-04-04T10:12:22.913Z,39.4
2018-04-04T10:13:22.997Z,38.6
2018-04-04T10:14:23.041Z,39
2018-04-04T10:15:23.198Z,38.4
2018-04-04T10:16:23.161Z,39
2018-04-04T10:17:23.219Z,40
2018-04-04T10:18:23.297Z,40.1
2018-04-04T10:19:23.345Z,40.6
2018-04-04T10:20:23.471Z,40.2
2018-04-04T10:21:23.535Z,40.6
2018-04-04T10:22:23.543Z,39.9
2018-04-04T10:23:23.595Z,39.4
2018-04-04T10:24:23.632Z,38.5
2018-04-04T10:25:23.695Z,38
2018-04-04T10:26:23.750Z,38.6
2018-04-04T10:27:23.800Z,40.2
2018-04-04T10:28:23.865Z,40.9
2018-04-04T10:29:23.911Z,41.4
2018-04-04T10:30:24.403Z,42.4
2018-04-04T10:31:24.391Z,43.3
2018-04-04T10:32:24.466Z,44.1
2018-04-04T10:33:24.506Z,44.9
2018-04-04T10:34:24.572Z,45.6
2018-04-04T10:35:24.677Z,46.2
2018-04-04T10:36:24.684Z,46.7
2018-04-04T10:37:24.771Z,47.4
2018-04-04T10:38:24.791Z,47
2018-04-04T10:39:24.864Z,45.4
2018-04-04T10:40:24.974Z,44.1
2018-04-04T10:41:24.995Z,42.9
2018-04-04T10:42:25.040Z,42.2
2018-04-04T10:43:25.121Z,41.1
2018-04-04T10:44:25.189Z,42
2018-04-04T10:45:25.253Z,43.6
2018-04-04T10:46:25.320Z,44.7
2018-04-04T10:47:25.355Z,45.8
2018-04-04T10:48:25.467Z,46.6
2018-04-04T10:49:25.519Z,47.5
2018-04-04T10:50:25.697Z,48.3
2018-04-04T10:51:25.643Z,47.9
2018-04-04T10:52:25.703Z,46.4
2018-04-04T10:53:25.760Z,45
2018-04-04T10:54:25.877Z,44
2018-04-04T10:55:26.139Z,43.1
2018-04-04T10:56:25.948Z,43.3
2018-04-04T10:57:26.014Z,44.5
2018-04-04T10:58:26.067Z,45.6
2018-04-04T10:59:26.128Z,46.5
2018-04-04T11:00:26.227Z,45.6
2018-04-04T11:01:26.266Z,43.6
2018-04-04T11:02:26.317Z,42.5
2018-04-04T11:03:26.392Z,41.6
2018-04-04T11:04:26.410Z,41.5
2018-04-04T11:05:26.560Z,40.2
2018-04-04T11:06:26.539Z,39.1
2018-04-04T11:07:26.600Z,38
2018-04-04T11:08:26.674Z,36.9
2018-04-04T11:09:26.753Z,36
2018-04-04T11:10:26.822Z,35.4
2018-04-04T11:12:26.901Z,35.1
2018-04-04T11:13:27.003Z,37.1
2018-04-04T11:14:27.020Z,38.1
2018-04-04T11:15:27.200Z,39.2
2018-04-04T11:16:27.165Z,40.6
2018-04-04T11:17:27.224Z,41.7
2018-04-04T11:18:27.269Z,42.7
2018-04-04T11:19:27.327Z,43.7
2018-04-04T11:20:27.491Z,44.5
2018-04-04T11:21:27.512Z,45
2018-04-04T11:22:27.571Z,45.9
2018-04-04T11:23:27.638Z,46.4
2018-04-04T11:24:27.644Z,46.7
2018-04-04T11:25:27.761Z,47.1
2018-04-04T11:26:27.771Z,47.5
2018-04-04T11:27:27.831Z,48
2018-04-04T11:28:27.890Z,48.4
2018-04-04T11:29:27.945Z,48.7
2018-04-04T11:31:28.078Z,46.4
2018-04-04T11:32:28.148Z,44.6
2018-04-04T11:33:28.192Z,43.1
2018-04-04T11:34:28.250Z,41.5
2018-04-04T11:35:28.604Z,40.1
2018-04-04T11:36:28.468Z,38.9
2018-04-04T11:37:28.487Z,37.6
2018-04-04T11:38:28.549Z,36.4
2018-04-04T11:41:28.729Z,33.5
2018-04-04T11:42:28.787Z,32.7
2018-04-04T11:43:28.847Z,32
2018-04-04T11:44:28.940Z,31.4
2018-04-04T11:45:28.981Z,30.9
2018-04-04T11:46:29.018Z,30.4
2018-04-04T11:47:29.099Z,29.9
2018-04-04T11:48:29.159Z,29.5
2018-04-04T11:49:29.208Z,29
2018-04-04T11:50:29.376Z,28.5
2018-04-04T11:51:29.415Z,28.3
2018-04-04T11:52:29.403Z,27.9
2018-04-04T11:53:29.433Z,27.5
2018-04-04T11:54:29.490Z,27.1
2018-04-04T11:55:29.558Z,26.8
2018-04-04T11:56:29.674Z,26.5
2018-04-04T11:57:30.124Z,26.2
2018-04-04T11:58:30.185Z,26
2018-04-04T11:59:30.283Z,25.9
2018-04-04T12:00:30.344Z,25.8
2018-04-04T12:01:30.411Z,25.9
2018-04-04T12:03:30.534Z,26.1
2018-04-04T12:04:30.595Z,26.5
2018-04-04T12:05:30.630Z,27.1
2018-04-04T12:06:30.685Z,27.8
2018-04-04T12:07:30.781Z,28.9
2018-04-04T12:08:30.791Z,30.4
2018-04-04T12:09:30.858Z,33.1
2018-04-04T12:10:30.919Z,33
2018-04-04T12:11:30.997Z,32.5
2018-04-04T12:12:31.041Z,31.6
2018-04-04T12:13:31.099Z,31
2018-04-04T12:14:31.230Z,30.8
2018-04-04T12:15:31.269Z,32.2
2018-04-04T12:16:31.329Z,33.2
2018-04-04T12:17:31.392Z,32.6
2018-04-04T12:18:31.418Z,32
2018-04-04T12:19:31.540Z,31.5
2018-04-04T12:20:31.634Z,31.2
2018-04-04T12:21:31.631Z,32.4
2018-04-04T12:22:31.712Z,34.1
2018-04-04T12:23:31.758Z,33.2
2018-04-04T12:24:31.820Z,32.4
2018-04-04T12:25:31.853Z,31.9
2018-04-04T12:26:31.950Z,31.6
2018-04-04T12:27:31.983Z,33.6
2018-04-04T12:28:32.085Z,33
2018-04-04T12:29:32.133Z,32.4
2018-04-04T12:30:32.201Z,33.2
2018-04-04T12:31:32.252Z,33.4
2018-04-04T12:32:32.373Z,32.5
2018-04-04T12:33:32.387Z,32
2018-04-04T12:34:32.445Z,31.4
2018-04-04T12:35:32.518Z,30.8
2018-04-04T12:36:32.567Z,30.1
2018-04-04T12:37:32.586Z,29.5
2018-04-04T12:38:32.745Z,29.1
2018-04-04T12:39:32.706Z,28.7
2018-04-04T12:40:32.775Z,28.3
2018-04-04T12:41:32.848Z,28
2018-04-04T12:42:32.891Z,27.8
2018-04-04T12:43:32.959Z,27.4
2018-04-04T12:44:33.034Z,27
2018-04-04T12:45:33.078Z,26.8
2018-04-04T12:46:33.200Z,26.6
2018-04-04T12:47:33.269Z,26.5
2018-04-04T12:48:33.300Z,26.8
2018-04-04T12:49:33.365Z,27.8
2018-04-04T12:50:33.457Z,27.5
2018-04-04T12:51:33.486Z,27.2
2018-04-04T12:52:33.517Z,27.1
2018-04-04T12:53:33.622Z,27.2
2018-04-04T12:54:33.643Z,28.9
2018-04-04T12:55:33.763Z,29.9
2018-04-04T12:56:33.765Z,30.9
2018-04-04T12:57:33.832Z,30.8
2018-04-04T12:58:33.875Z,30.6
2018-04-04T12:59:33.938Z,31.1
2018-04-04T13:00:34.022Z,33.6
2018-04-04T13:01:34.068Z,36
2018-04-04T13:02:34.159Z,37.2
2018-04-04T13:03:34.245Z,36.2
2018-04-04T13:04:34.252Z,36.7
2018-04-04T13:05:34.372Z,36
2018-04-04T13:06:34.433Z,35.4
2018-04-04T13:07:34.492Z,35.9
2018-04-04T13:08:34.572Z,35.2
2018-04-04T13:09:34.593Z,34.7
2018-04-04T13:10:34.640Z,34.2
2018-04-04T13:11:34.733Z,35.4
2018-04-04T13:12:34.790Z,37
2018-04-04T13:13:34.845Z,37.5
2018-04-04T13:14:34.913Z,36.6
2018-04-04T13:15:34.972Z,35.7
2018-04-04T13:16:35.037Z,34.9
2018-04-04T13:17:35.094Z,34.6
2018-04-04T13:18:35.157Z,34
2018-04-04T13:19:35.218Z,33.7
2018-04-04T13:20:35.303Z,33.1
2018-04-04T13:21:35.311Z,34
2018-04-04T13:22:35.357Z,35.1
2018-04-04T13:23:35.445Z,34.7
2018-04-04T13:24:35.499Z,34
2018-04-04T13:25:35.596Z,33.6
2018-04-04T13:26:35.612Z,33.7
2018-04-04T13:27:35.675Z,33.2
2018-04-04T13:28:35.758Z,32.4
2018-04-04T13:29:35.846Z,31.8
2018-04-04T13:30:35.859Z,31.2
2018-04-04T13:31:35.920Z,30.8
2018-04-04T13:32:35.988Z,30.4
2018-04-04T13:34:36.101Z,30.3
2018-04-04T13:35:36.232Z,31.2
2018-04-04T13:36:36.243Z,32.5
2018-04-04T13:37:36.301Z,34.2
2018-04-04T13:38:36.358Z,35.6
2018-04-04T13:39:36.460Z,37
2018-04-04T13:40:36.550Z,38
2018-04-04T13:41:36.582Z,37.9
2018-04-04T13:42:36.610Z,36.1
2018-04-04T13:43:36.710Z,34.7
2018-04-04T13:44:36.725Z,33.9
2018-04-04T13:45:36.789Z,33.1
2018-04-04T13:46:36.874Z,32.5
2018-04-04T13:47:36.916Z,32
2018-04-04T13:48:36.970Z,31.9
2018-04-04T13:49:37.043Z,32.1
2018-04-04T13:50:37.102Z,33.2
2018-04-04T13:51:37.164Z,32.5
2018-04-04T13:52:37.276Z,33.6
2018-04-04T13:53:37.292Z,34.5
2018-04-04T13:54:37.349Z,35.5
2018-04-04T13:55:37.438Z,35.7
2018-04-04T13:56:37.497Z,34.7
2018-04-04T13:57:37.556Z,33.2
2018-04-04T13:58:37.657Z,32
2018-04-04T13:59:37.712Z,31
2018-04-04T14:00:37.773Z,30.3
2018-04-04T14:01:37.838Z,30.1
2018-04-04T14:02:37.859Z,29.6
2018-04-04T14:03:37.938Z,29.1
2018-04-04T14:04:38.047Z,28.6
2018-04-04T14:05:38.063Z,28
2018-04-04T14:06:38.124Z,27.6
2018-04-04T14:07:38.189Z,27.2
2018-04-04T14:08:38.229Z,27
2018-04-04T14:09:38.363Z,26.9
2018-04-04T14:10:38.361Z,28
2018-04-04T14:11:38.448Z,29
2018-04-04T14:12:38.523Z,30.4
2018-04-04T14:14:38.686Z,30.5
2018-04-04T14:15:38.690Z,29.8
2018-04-04T14:16:38.728Z,29.4
2018-04-04T14:18:38.848Z,29.1
2018-04-04T14:19:38.881Z,29
2018-04-04T14:20:38.951Z,29.1
2018-04-04T14:21:39.024Z,30.1
2018-04-04T14:22:39.068Z,31.8
2018-04-04T14:23:39.130Z,33
2018-04-04T14:24:39.246Z,34.4
2018-04-04T14:25:39.258Z,35.6
2018-04-04T14:26:39.319Z,36.6
2018-04-04T14:27:39.397Z,36.5
2018-04-04T14:28:39.450Z,35.2
2018-04-04T14:29:39.516Z,33.7
2018-04-04T14:30:39.573Z,33
2018-04-04T14:31:39.668Z,33.1
2018-04-04T14:32:39.698Z,32
2018-04-04T14:33:39.755Z,30.9
2018-04-04T14:34:39.825Z,29.8
2018-04-04T14:35:39.896Z,28.7
2018-04-04T14:36:39.951Z,27.9
2018-04-04T14:37:40.029Z,27.1
2018-04-04T14:38:40.061Z,26.5
2018-04-04T14:39:40.182Z,25.9
2018-04-04T14:40:40.216Z,25.4
2018-04-04T14:41:40.284Z,25
2018-04-04T14:42:40.312Z,24.5
2018-04-04T14:43:40.360Z,24.1
2018-04-04T14:44:40.473Z,23.7
2018-04-04T14:45:40.534Z,23.4
2018-04-04T14:46:40.554Z,23
2018-04-04T14:47:40.693Z,22.6
2018-04-04T14:48:40.679Z,22.2
2018-04-04T14:49:40.755Z,21.9
2018-04-04T14:50:40.860Z,21.6
2018-04-04T14:51:40.902Z,21.4
2018-04-04T14:52:40.961Z,21.1
2018-04-04T14:53:41.011Z,20.9
2018-04-04T14:54:41.087Z,20.8
2018-04-04T14:55:41.133Z,20.6
2018-04-04T14:56:41.216Z,20.8
2018-04-04T14:57:41.324Z,20.9
2018-04-04T14:58:41.344Z,21.1
2018-04-04T14:59:41.401Z,21.5
2018-04-04T15:00:41.434Z,22
2018-04-04T15:01:41.519Z,22.2
2018-04-04T15:02:41.547Z,22.6
2018-04-04T15:03:41.652Z,23.3
2018-04-04T15:04:41.711Z,24.1
2018-04-04T15:05:41.737Z,25.5
2018-04-04T15:06:41.788Z,26
2018-04-04T15:07:41.846Z,26.5
2018-04-04T15:08:41.960Z,27
2018-04-04T15:09:41.963Z,28
2018-04-04T15:10:42.024Z,28.3
2018-04-04T15:11:42.101Z,29.1
2018-04-04T15:12:42.158Z,30.3
2018-04-04T15:13:42.268Z,31.4
2018-04-04T15:14:42.325Z,32.2
2018-04-04T15:15:42.395Z,32.9
2018-04-04T15:16:42.440Z,33.5
2018-04-04T15:17:42.468Z,34.1
2018-04-04T15:18:42.590Z,34.6
2018-04-04T15:19:42.632Z,35.1
2018-04-04T15:20:42.675Z,34.6
2018-04-04T15:21:42.716Z,35
2018-04-04T15:22:42.780Z,35.2
2018-04-04T15:23:42.857Z,35.4
2018-04-04T15:24:42.901Z,35.5
2018-04-04T15:25:42.965Z,35.6
2018-04-04T15:26:43.064Z,35.5
2018-04-04T15:27:43.085Z,34.7
2018-04-04T15:28:43.194Z,34.5
2018-04-04T15:29:43.218Z,34.4
2018-04-04T15:30:43.261Z,33.4
2018-04-04T15:31:43.368Z,33.1
2018-04-04T15:32:43.402Z,33.2
2018-04-04T15:33:43.467Z,33.6
2018-04-04T15:34:43.564Z,33.7
2018-04-04T15:35:43.604Z,34
2018-04-04T15:36:43.684Z,34.1
2018-04-04T15:37:43.733Z,34.2
2018-04-04T15:39:43.862Z,34
2018-04-04T15:40:43.928Z,33.5
2018-04-04T15:41:43.976Z,32.7
2018-04-04T15:42:44.042Z,32.2
2018-04-04T15:43:44.118Z,31.6
2018-04-04T15:44:44.186Z,30.9
2018-04-04T15:45:44.232Z,29.6
2018-04-04T15:46:44.286Z,28.5
2018-04-04T15:47:44.309Z,27.5
2018-04-04T15:48:44.450Z,26.6
2018-04-04T15:49:44.461Z,25.9
2018-04-04T15:50:44.541Z,25.3
2018-04-04T15:51:44.552Z,24.5
2018-04-04T15:52:44.646Z,23.9
2018-04-04T15:53:44.683Z,23.4
2018-04-04T15:54:44.751Z,22.9
2018-04-04T15:55:44.804Z,22.4
2018-04-04T15:56:44.863Z,21.9
2018-04-04T15:57:44.932Z,21.5
2018-04-04T15:58:45.013Z,21.1
2018-04-04T15:59:45.047Z,20.9
2018-04-04T16:00:45.155Z,20.6
2018-04-04T16:01:45.213Z,20.3
2018-04-04T16:02:45.280Z,20
2018-04-04T16:03:45.305Z,19.9
2018-04-04T16:04:45.445Z,19.6
2018-04-04T16:05:45.466Z,19.4
2018-04-04T16:06:45.486Z,19.1
2018-04-04T16:07:45.560Z,18.9
2018-04-04T16:08:45.640Z,18.8
2018-04-04T16:09:45.663Z,18.5
2018-04-04T16:10:45.789Z,18.4
2018-04-04T16:11:45.783Z,18.3
2018-04-04T16:12:45.844Z,18.1
2018-04-04T16:13:45.924Z,17.9
2018-04-04T16:14:45.977Z,17.8
2018-04-04T16:15:46.029Z,17.6
2018-04-04T16:16:46.099Z,17.5
2018-04-04T16:17:46.162Z,17.4
2018-04-04T16:18:46.214Z,17.2
2018-04-04T16:19:46.279Z,17.1
2018-04-04T16:21:46.466Z,17
2018-04-04T16:22:46.492Z,16.9
2018-04-04T16:23:46.559Z,16.8
2018-04-04T16:24:46.604Z,16.6
2018-04-04T16:25:46.693Z,16.5
2018-04-04T16:26:46.766Z,16.4
2018-04-04T16:27:46.813Z,16.3
2018-04-04T16:28:46.879Z,16.1
2018-04-04T16:29:46.949Z,15.9
2018-04-04T16:30:47.005Z,15.8
2018-04-04T16:32:47.133Z,15.6
2018-04-04T16:33:47.176Z,15.5
2018-04-04T16:34:47.254Z,15.4
2018-04-04T16:36:47.390Z,15.3
2018-04-04T16:37:47.446Z,15.1
2018-04-04T16:39:47.559Z,15
2018-04-04T16:40:47.600Z,14.7
2018-04-04T16:41:47.653Z,14.6
2018-04-04T16:42:47.708Z,14.4
2018-04-04T16:43:47.765Z,14.3
2018-04-04T16:44:47.824Z,14
2018-04-04T16:46:47.972Z,13.8
2018-04-04T16:47:48.001Z,13.6
2018-04-04T16:49:48.127Z,13.5
2018-04-04T16:50:48.198Z,13.4
2018-04-04T16:51:48.254Z,13.3
2018-04-04T16:53:48.384Z,13.1
2018-04-04T16:55:48.524Z,13
2018-04-04T16:58:48.703Z,12.9
2018-04-04T17:00:48.911Z,12.8
2018-04-04T17:02:48.929Z,12.6
2018-04-04T17:08:49.337Z,12.5
2018-04-04T17:45:51.640Z,12.6
2018-04-04T18:03:52.758Z,12.5
2018-04-04T18:12:53.306Z,12.4
2018-04-04T18:27:54.188Z,12.2
2018-04-04T18:37:54.799Z,12.4
2018-04-04T18:38:54.916Z,12.2
2018-04-04T18:39:54.935Z,12.4
2018-04-04T18:40:54.986Z,12.2
2018-04-04T18:41:55.088Z,12.4
2018-04-04T19:01:56.330Z,12.2
2018-04-04T19:07:56.646Z,12.1
2018-04-04T19:13:57.019Z,12
2018-04-04T19:17:57.311Z,11.9
2018-04-04T19:21:57.538Z,11.8
2018-04-04T19:25:57.952Z,11.6
2018-04-04T19:29:58.153Z,11.5
2018-04-04T19:31:58.309Z,11.4
2018-04-04T19:34:58.483Z,11.3
2018-04-04T19:37:58.681Z,11.1
2018-04-04T19:42:59.019Z,11
2018-04-04T19:48:59.968Z,10.9
2018-04-04T20:03:01.258Z,10.8
2018-04-04T20:04:01.640Z,10.9
2018-04-04T20:06:02.165Z,10.8
2018-04-04T20:07:02.797Z,10.9
2018-04-04T20:08:02.941Z,10.8
2018-04-04T20:10:03.897Z,10.9
2018-04-04T20:52:14.202Z,10.8
2018-04-04T21:07:16.929Z,10.6
2018-04-04T21:16:18.585Z,10.5
2018-04-04T21:21:19.531Z,10.4
2018-04-04T21:26:20.460Z,10.3
2018-04-04T21:28:20.755Z,10.1
2018-04-04T21:31:21.300Z,10
2018-04-04T21:33:21.705Z,9.9
2018-04-04T21:36:22.250Z,9.8
2018-04-04T21:39:22.848Z,9.6
2018-04-04T21:42:23.377Z,9.5
2018-04-04T21:45:23.865Z,9.4
2018-04-04T21:49:24.619Z,9.3
2018-04-04T21:55:25.731Z,9.1
2018-04-04T22:00:26.793Z,9
2018-04-04T22:05:27.704Z,8.9
2018-04-04T22:16:29.720Z,9
2018-04-04T22:21:30.646Z,9.1
2018-04-04T22:22:30.821Z,9
2018-04-04T22:23:31.012Z,9.1
2018-04-04T22:41:34.598Z,9.3
2018-04-04T22:44:35.160Z,9.4
2018-04-04T22:46:35.529Z,9.5
2018-04-04T22:48:35.851Z,9.6
2018-04-04T22:51:36.467Z,9.8
2018-04-04T22:55:37.117Z,9.9
2018-04-04T22:59:37.965Z,10
2018-04-04T23:07:39.408Z,10.1
2018-04-04T23:48:46.862Z,10
